Time;durP1;ratioP1;P1;durP2;ratioP2;P2;SDS_P1;SDS_P2;PMS_P1;PMS_P2;Temp;Humidity;BMP_temperature;BMP_pressure;BME280_temperature;BME280_humidity;BME280_pressure;Samples;Min_cycle;Max_cycle;Signal;HPM_P1;HPM_P2
2023/11/16 00:02:16;;;;;;;9.30;4.40;;;;;;;6.72;100.00;98830.13;109481;1252;64168;-69
2023/11/16 00:04:43;;;;;;;6.90;5.20;;;;;;;6.70;100.00;98830.60;109479;1256;58234;-68
2023/11/16 00:07:10;;;;;;;9.60;5.30;;;;;;;6.69;100.00;98830.83;109444;1252;58319;-68
2023/11/16 00:09:37;;;;;;;7.50;5.60;;;;;;;6.68;100.00;98835.27;109497;1253;64063;-68
2023/11/16 00:12:04;;;;;;;8.50;5.50;;;;;;;6.66;100.00;98829.39;109522;1252;59062;-69
2023/11/16 00:14:31;;;;;;;10.50;5.40;;;;;;;6.65;100.00;98830.52;109449;1254;62520;-69
2023/11/16 00:17:00;;;;;;;6.90;4.60;;;;;;;6.65;100.00;98834.02;109490;1252;58153;-67
2023/11/16 00:19:28;;;;;;;8.40;4.60;;;;;;;6.65;100.00;98832.80;109491;1252;58352;-68
2023/11/16 00:21:54;;;;;;;6.20;4.00;;;;;;;6.63;100.00;98835.02;109468;1252;63811;-68
2023/11/16 00:24:21;;;;;;;5.30;3.90;;;;;;;6.62;100.00;98837.05;109540;1253;60373;-68
2023/11/16 00:26:50;;;;;;;6.40;3.70;;;;;;;6.60;100.00;98837.14;109488;1253;58231;-68
2023/11/16 00:29:17;;;;;;;7.20;4.00;;;;;;;6.59;100.00;98839.66;109508;1252;58159;-68
2023/11/16 00:31:43;;;;;;;6.40;4.00;;;;;;;6.59;100.00;98843.54;109446;1252;58137;-68
2023/11/16 00:34:10;;;;;;;9.10;4.70;;;;;;;6.57;100.00;98845.40;109510;1253;65018;-68
2023/11/16 00:36:39;;;;;;;5.80;4.40;;;;;;;6.55;100.00;98847.99;109137;1252;58691;-68
2023/11/16 00:39:07;;;;;;;7.40;4.30;;;;;;;6.53;100.00;98851.43;109298;1252;63303;-67
2023/11/16 00:41:37;;;;;;;5.80;4.10;;;;;;;6.50;100.00;98854.26;109484;1253;58151;-67
2023/11/16 00:44:05;;;;;;;8.40;5.10;;;;;;;6.45;100.00;98855.56;109156;1252;58196;-67
2023/11/16 00:46:36;;;;;;;7.20;3.90;;;;;;;6.37;100.00;98856.52;109204;1257;65815;-67
2023/11/16 00:49:02;;;;;;;8.60;4.40;;;;;;;6.30;100.00;98857.92;109469;1253;58718;-67
2023/11/16 00:51:29;;;;;;;7.90;4.70;;;;;;;6.25;100.00;98861.75;109516;1252;64200;-68
2023/11/16 00:53:56;;;;;;;7.50;4.60;;;;;;;6.20;100.00;98864.47;109521;1254;58159;-68
2023/11/16 00:56:23;;;;;;;5.60;4.20;;;;;;;6.14;100.00;98866.84;109479;1252;58189;-68
2023/11/16 00:58:49;;;;;;;6.90;4.20;;;;;;;6.08;100.00;98866.10;109498;1253;65147;-68
2023/11/16 01:01:16;;;;;;;7.40;4.60;;;;;;;6.02;100.00;98864.30;109517;1253;58754;-67
2023/11/16 01:03:42;;;;;;;7.90;5.60;;;;;;;5.97;100.00;98866.31;109478;1253;64912;-67
2023/11/16 01:06:09;;;;;;;10.20;6.60;;;;;;;5.92;100.00;98866.38;109486;1253;58233;-67
2023/11/16 01:08:37;;;;;;;15.80;10.90;;;;;;;5.88;100.00;98868.50;109498;1252;58625;-67
2023/11/16 01:11:04;;;;;;;14.80;13.00;;;;;;;5.84;100.00;98870.83;109490;1253;63708;-67
2023/11/16 01:13:38;;;;;;;16.80;11.80;;;;;;;5.80;100.00;98877.17;109502;1254;58931;-67
2023/11/16 01:16:17;;;;;;;15.00;10.70;;;;;;;5.77;100.00;98880.14;109508;1253;64185;-67
2023/11/16 01:18:51;;;;;;;12.30;8.30;;;;;;;5.74;100.00;98879.73;109498;1253;58154;-67
2023/11/16 01:21:19;;;;;;;11.30;6.80;;;;;;;5.73;100.00;98884.92;109502;1252;59044;-68
2023/11/16 01:23:47;;;;;;;11.90;6.80;;;;;;;5.71;100.00;98888.38;109173;1253;65285;-67
2023/11/16 01:26:15;;;;;;;11.90;7.60;;;;;;;5.69;100.00;98885.48;109519;1253;59644;-68
2023/11/16 01:28:46;;;;;;;12.30;7.90;;;;;;;5.66;100.00;98885.64;109510;1251;63742;-67
2023/11/16 01:31:14;;;;;;;11.70;7.80;;;;;;;5.60;100.00;98885.21;109504;1253;58149;-69
2023/11/16 01:33:42;;;;;;;13.70;8.30;;;;;;;5.54;100.00;98884.79;109539;1253;58062;-68
2023/11/16 01:36:09;;;;;;;12.50;8.10;;;;;;;5.48;100.00;98885.23;109562;1254;63709;-68
2023/11/16 01:38:39;;;;;;;13.70;8.90;;;;;;;5.43;100.00;98880.94;109536;1251;60176;-68
2023/11/16 01:41:06;;;;;;;11.60;8.30;;;;;;;5.38;100.00;98875.36;109370;1252;63877;-68
2023/11/16 01:43:34;;;;;;;13.00;8.50;;;;;;;5.33;100.00;98881.92;109537;1252;58132;-68
2023/11/16 01:46:07;;;;;;;14.60;10.00;;;;;;;5.28;100.00;98882.16;109556;1251;58169;-68
2023/11/16 01:48:39;;;;;;;18.00;10.80;;;;;;;5.23;100.00;98883.45;109509;1252;64036;-68
2023/11/16 01:51:11;;;;;;;15.60;10.50;;;;;;;5.19;100.00;98880.81;109457;1251;60099;-69
2023/11/16 01:53:41;;;;;;;15.10;10.40;;;;;;;5.16;100.00;98875.33;109509;1252;62869;-68
2023/11/16 01:56:08;;;;;;;;;;;;;;;5.13;100.00;98878.26;109528;1252;58240;-68
2023/11/16 01:58:37;;;;;;;15.50;10.80;;;;;;;5.11;100.00;98876.95;109523;1252;58163;-68
2023/11/16 02:01:04;;;;;;;16.20;11.90;;;;;;;5.10;100.00;98874.89;109576;1251;64966;-68
2023/11/16 02:03:31;;;;;;;14.80;9.90;;;;;;;5.10;100.00;98875.79;109522;1251;58962;-68
2023/11/16 02:05:59;;;;;;;15.90;10.50;;;;;;;5.11;100.00;98875.73;109538;1253;64221;-68
2023/11/16 02:08:25;;;;;;;17.70;10.70;;;;;;;5.12;100.00;98877.48;109499;1252;59038;-69
2023/11/16 02:10:52;;;;;;;14.40;10.30;;;;;;;5.13;100.00;98876.52;109541;1252;58958;-69
2023/11/16 02:13:21;;;;;;;17.70;10.50;;;;;;;5.14;100.00;98881.23;109515;1253;66039;-68
2023/11/16 02:15:48;;;;;;;16.50;11.10;;;;;;;5.16;100.00;98882.38;109149;1254;59899;-68
2023/11/16 02:18:16;;;;;;;15.10;9.40;;;;;;;5.18;100.00;98884.22;109532;1253;64057;-68
2023/11/16 02:20:47;;;;;;;17.30;11.10;;;;;;;5.19;100.00;98887.88;109474;1253;59214;-68
2023/11/16 02:23:15;;;;;;;18.20;11.50;;;;;;;5.20;100.00;98893.27;109544;1253;58955;-68
2023/11/16 02:25:51;;;;;;;15.40;10.80;;;;;;;5.21;100.00;98893.23;109528;1252;65639;-68
2023/11/16 02:28:19;;;;;;;16.60;10.50;;;;;;;5.22;100.00;98895.66;109534;1253;61017;-69
2023/11/16 02:30:52;;;;;;;16.70;11.40;;;;;;;5.23;100.00;98900.35;109549;1253;64892;-69
2023/11/16 02:33:22;;;;;;;14.10;10.00;;;;;;;5.25;100.00;98900.95;109520;1254;59011;-69
2023/11/16 02:35:52;;;;;;;16.00;11.80;;;;;;;5.29;100.00;98901.84;109536;1253;58960;-69
2023/11/16 02:38:19;;;;;;;16.10;11.40;;;;;;;5.31;100.00;98902.44;109517;1252;67243;-69
2023/11/16 02:40:46;;;;;;;16.80;11.40;;;;;;;5.34;100.00;98905.66;109532;1252;59220;-68
2023/11/16 02:43:13;;;;;;;18.50;12.40;;;;;;;5.36;100.00;98905.41;109516;1254;64062;-68
2023/11/16 02:45:39;;;;;;;17.60;12.30;;;;;;;5.37;100.00;98904.98;109524;1252;59008;-68
2023/11/16 02:48:08;;;;;;;19.50;12.90;;;;;;;5.39;100.00;98906.45;109542;1251;59005;-68
2023/11/16 02:50:35;;;;;;;18.60;13.60;;;;;;;5.43;100.00;98907.54;109544;1252;66172;-68
2023/11/16 02:53:03;;;;;;;22.20;15.40;;;;;;;5.45;100.00;98911.11;109522;1254;60155;-69
2023/11/16 02:55:29;;;;;;;21.30;16.50;;;;;;;5.47;100.00;98912.23;109507;1254;64889;-68
2023/11/16 02:57:57;;;;;;;21.90;15.90;;;;;;;5.49;100.00;98914.47;109451;1254;58971;-68
2023/11/16 03:00:34;;;;;;;21.60;15.90;;;;;;;5.50;100.00;98913.89;109490;1252;58990;-67
2023/11/16 03:03:05;;;;;;;21.90;15.40;;;;;;;5.50;100.00;98913.35;109489;1253;66106;-68
2023/11/16 03:05:33;;;;;;;20.40;14.20;;;;;;;5.51;100.00;98913.51;109521;1252;59801;-68
2023/11/16 03:07:59;;;;;;;17.90;13.90;;;;;;;5.52;100.00;98907.27;109516;1252;63760;-68
2023/11/16 03:10:28;;;;;;;17.00;13.90;;;;;;;5.54;100.00;98906.83;109474;1252;59226;-68
2023/11/16 03:12:55;;;;;;;17.10;13.60;;;;;;;5.56;100.00;98907.62;109548;1253;59171;-67
2023/11/16 03:15:21;;;;;;;18.10;13.50;;;;;;;5.56;100.00;98912.92;109488;1253;64504;-67
2023/11/16 03:17:48;;;;;;;19.10;13.80;;;;;;;5.55;100.00;98919.81;109534;1252;59831;-67
2023/11/16 03:20:17;;;;;;;20.80;16.30;;;;;;;5.55;100.00;98922.46;109519;1253;63964;-68
2023/11/16 03:22:44;;;;;;;25.20;18.20;;;;;;;5.55;100.00;98927.58;109477;1252;58944;-67
2023/11/16 03:25:11;;;;;;;23.90;18.00;;;;;;;5.56;100.00;98928.73;109527;1252;59120;-68
2023/11/16 03:27:38;;;;;;;22.60;17.60;;;;;;;5.58;100.00;98930.05;109463;1254;65720;-69
2023/11/16 03:30:05;;;;;;;21.50;16.90;;;;;;;5.60;100.00;98930.69;109569;1252;59816;-68
2023/11/16 03:32:32;;;;;;;19.30;15.00;;;;;;;5.61;100.00;98930.46;109553;1253;72879;-69
2023/11/16 03:34:58;;;;;;;18.90;14.70;;;;;;;5.62;100.00;98933.92;109489;1253;58960;-68
2023/11/16 03:37:25;;;;;;;17.60;13.40;;;;;;;5.63;100.00;98932.83;109563;1252;59107;-68
2023/11/16 03:39:51;;;;;;;16.10;13.40;;;;;;;5.64;100.00;98932.05;109276;1253;66684;-68
2023/11/16 03:42:18;;;;;;;15.50;12.90;;;;;;;5.65;100.00;98933.10;109560;1253;60113;-68
2023/11/16 03:44:45;;;;;;;16.70;11.90;;;;;;;5.64;100.00;98930.83;109223;1254;59100;-69
2023/11/16 03:47:11;;;;;;;18.80;10.90;;;;;;;5.63;100.00;98922.56;109497;1252;58955;-68
2023/11/16 03:49:38;;;;;;;16.50;12.00;;;;;;;5.63;100.00;98920.82;109508;1252;58862;-68
2023/11/16 03:52:05;;;;;;;14.40;11.20;;;;;;;5.64;100.00;98929.42;109522;1255;64521;-68
2023/11/16 03:54:31;;;;;;;15.30;11.80;;;;;;;5.64;100.00;98928.52;109235;1254;61443;-68
2023/11/16 03:56:57;;;;;;;17.80;12.30;;;;;;;5.64;100.00;98928.52;109499;1254;59001;-68
2023/11/16 03:59:24;;;;;;;14.10;12.00;;;;;;;5.65;100.00;98927.10;109503;1252;59034;-68
2023/11/16 04:01:51;;;;;;;18.50;12.50;;;;;;;5.65;100.00;98926.36;109250;1252;59101;-68
2023/11/16 04:04:19;;;;;;;17.50;12.30;;;;;;;5.65;100.00;98925.86;109503;1252;66161;-68
2023/11/16 04:06:49;;;;;;;18.60;13.60;;;;;;;5.63;100.00;98929.83;109525;1253;59000;-67
2023/11/16 04:09:16;;;;;;;14.50;13.00;;;;;;;5.62;100.00;98934.48;109514;1253;64046;-67
2023/11/16 04:11:47;;;;;;;17.20;13.60;;;;;;;5.61;100.00;98935.76;109509;1251;59242;-67
2023/11/16 04:14:17;;;;;;;;;;;;;;;5.60;100.00;98933.84;109531;1253;58887;-67
2023/11/16 04:16:52;;;;;;;19.50;13.80;;;;;;;5.60;100.00;98934.21;109538;1253;66027;-68
2023/11/16 04:19:20;;;;;;;19.60;15.00;;;;;;;5.62;100.00;98935.53;109486;1252;60124;-67
2023/11/16 04:21:46;;;;;;;22.20;15.40;;;;;;;5.62;100.00;98935.14;109516;1253;64176;-68
2023/11/16 04:24:13;;;;;;;19.70;13.60;;;;;;;5.63;100.00;98932.81;109499;1251;58947;-68
2023/11/16 04:26:39;;;;;;;17.40;13.70;;;;;;;5.64;100.00;98934.72;109514;1253;59848;-68
2023/11/16 04:29:11;;;;;;;17.00;14.20;;;;;;;5.64;100.00;98932.25;109545;1251;64450;-68
2023/11/16 04:31:38;;;;;;;18.90;14.00;;;;;;;5.65;100.00;98928.87;109514;1253;59446;-69
2023/11/16 04:34:04;;;;;;;15.50;13.00;;;;;;;5.65;100.00;98927.96;109542;1252;62837;-68
2023/11/16 04:36:31;;;;;;;14.20;11.90;;;;;;;5.65;100.00;98932.72;109478;1253;58954;-67
2023/11/16 04:38:58;;;;;;;15.50;12.20;;;;;;;5.65;100.00;98936.74;109522;1252;59090;-67
2023/11/16 04:41:25;;;;;;;13.90;12.00;;;;;;;5.66;100.00;98938.14;109532;1252;64646;-68
2023/11/16 04:43:55;;;;;;;13.00;11.00;;;;;;;5.67;100.00;98937.95;109513;1253;59933;-68
2023/11/16 04:46:23;;;;;;;;;;;;;;;5.67;100.00;98941.10;109540;1251;62539;-68
2023/11/16 04:48:50;;;;;;;12.80;9.90;;;;;;;5.66;100.00;98942.20;109480;1253;59077;-68
2023/11/16 04:51:17;;;;;;;13.50;11.20;;;;;;;5.66;100.00;98944.66;109511;1253;58958;-67
2023/11/16 04:53:44;;;;;;;13.50;11.50;;;;;;;5.67;100.00;98945.51;109469;1254;65763;-68
2023/11/16 04:56:11;;;;;;;13.90;11.20;;;;;;;5.67;100.00;98947.09;109513;1254;60937;-68
2023/11/16 04:58:39;;;;;;;12.50;10.40;;;;;;;5.67;100.00;98947.60;109504;1252;63865;-68
2023/11/16 05:01:06;;;;;;;14.40;10.60;;;;;;;5.67;100.00;98950.77;109497;1254;58969;-68
2023/11/16 05:03:32;;;;;;;14.10;10.30;;;;;;;5.67;100.00;98952.36;109474;1254;59198;-68
2023/11/16 05:06:02;;;;;;;14.50;11.60;;;;;;;5.67;100.00;98949.53;109503;1252;64626;-69
2023/11/16 05:08:29;;;;;;;10.70;9.60;;;;;;;5.68;100.00;98954.95;109518;1254;59076;-68
2023/11/16 05:10:57;;;;;;;13.50;9.40;;;;;;;5.68;100.00;98954.40;109482;1252;65142;-68
2023/11/16 05:13:24;;;;;;;14.50;10.70;;;;;;;5.68;100.00;98956.35;109521;1252;59023;-69
2023/11/16 05:15:51;;;;;;;14.30;11.20;;;;;;;5.68;100.00;98955.65;109571;1251;59256;-68
2023/11/16 05:18:17;;;;;;;15.40;10.80;;;;;;;5.68;100.00;98957.95;109517;1253;65956;-68
2023/11/16 05:20:44;;;;;;;14.50;10.70;;;;;;;5.68;100.00;98965.52;109493;1253;60296;-69
2023/11/16 05:23:11;;;;;;;14.50;12.60;;;;;;;5.68;100.00;98959.70;109483;1254;62659;-68
2023/11/16 05:25:37;;;;;;;15.00;12.00;;;;;;;5.68;100.00;98956.17;109523;1251;58968;-68
2023/11/16 05:28:05;;;;;;;13.70;11.00;;;;;;;5.69;100.00;98947.87;109208;1251;59140;-67
2023/11/16 05:30:33;;;;;;;14.50;11.70;;;;;;;5.69;100.00;98945.39;109544;1254;66956;-68
2023/11/16 05:33:00;;;;;;;14.70;11.20;;;;;;;5.69;100.00;98948.02;109529;1254;59918;-68
2023/11/16 05:35:27;;;;;;;13.60;10.80;;;;;;;5.69;100.00;98952.08;109483;1253;63904;-69
2023/11/16 05:37:53;;;;;;;13.80;10.70;;;;;;;5.71;100.00;98961.00;109266;1253;59028;-69
2023/11/16 05:40:20;;;;;;;10.10;9.00;;;;;;;5.72;100.00;98964.13;109532;1253;59180;-68
2023/11/16 05:42:47;;;;;;;12.50;9.70;;;;;;;5.72;100.00;98959.34;109523;1254;65770;-68
2023/11/16 05:45:14;;;;;;;12.40;10.10;;;;;;;5.73;100.00;98959.46;109203;1254;60414;-68
2023/11/16 05:47:41;;;;;;;11.80;9.40;;;;;;;5.75;100.00;98956.43;109512;1252;62512;-68
2023/11/16 05:50:13;;;;;;;14.20;10.70;;;;;;;5.75;100.00;98955.52;109500;1252;58933;-68
2023/11/16 05:52:39;;;;;;;12.40;9.80;;;;;;;5.76;100.00;98959.87;109525;1252;59082;-67
2023/11/16 05:55:06;;;;;;;11.40;9.40;;;;;;;5.77;100.00;98957.55;109501;1254;64469;-67
2023/11/16 05:57:34;;;;;;;12.60;10.40;;;;;;;5.79;100.00;98948.98;109213;1254;59072;-67
2023/11/16 06:00:02;;;;;;;14.50;11.70;;;;;;;5.82;100.00;98945.49;109458;1254;64086;-69
2023/11/16 06:02:29;;;;;;;16.70;12.10;;;;;;;5.84;100.00;98952.27;109488;1254;58934;-67
2023/11/16 06:04:55;;;;;;;14.60;11.70;;;;;;;5.84;100.00;98950.33;109539;1252;58927;-68
2023/11/16 06:07:22;;;;;;;15.10;13.20;;;;;;;5.85;100.00;98951.88;109559;1252;64793;-68
2023/11/16 06:09:49;;;;;;;17.60;12.70;;;;;;;5.86;100.00;98953.77;109524;1252;60247;-68
2023/11/16 06:12:18;;;;;;;15.40;13.20;;;;;;;5.85;100.00;98959.42;109510;1253;64117;-69
2023/11/16 06:14:56;;;;;;;17.50;15.20;;;;;;;5.85;100.00;98961.02;109505;1252;58993;-67
2023/11/16 06:17:23;;;;;;;20.00;16.00;;;;;;;5.86;100.00;98957.82;109595;1251;59052;-68
2023/11/16 06:19:49;;;;;;;21.10;17.40;;;;;;;5.86;100.00;98956.73;109556;1253;65829;-67
2023/11/16 06:22:17;;;;;;;20.40;17.70;;;;;;;5.88;100.00;98960.89;109502;1254;59883;-67
2023/11/16 06:24:44;;;;;;;17.70;15.50;;;;;;;5.90;100.00;98961.67;109466;1254;62863;-68
2023/11/16 06:27:10;;;;;;;20.10;17.40;;;;;;;5.91;100.00;98955.45;109497;1253;58998;-68
2023/11/16 06:29:37;;;;;;;18.30;15.90;;;;;;;5.94;100.00;98947.20;109155;1257;60202;-68
2023/11/16 06:32:05;;;;;;;18.20;15.00;;;;;;;5.99;100.00;98949.80;109496;1253;65853;-68
2023/11/16 06:34:33;;;;;;;17.80;14.60;;;;;;;6.02;100.00;98955.11;109517;1253;59993;-68
2023/11/16 06:37:00;;;;;;;16.30;14.60;;;;;;;6.05;100.00;98959.22;109464;1254;63811;-69
2023/11/16 06:39:28;;;;;;;18.40;14.70;;;;;;;6.08;100.00;98963.84;109528;1251;59085;-69
2023/11/16 06:41:56;;;;;;;20.70;17.70;;;;;;;6.09;100.00;98959.02;109483;1255;59292;-69
2023/11/16 06:44:23;;;;;;;18.50;16.50;;;;;;;6.12;100.00;98957.45;109522;1254;67271;-68
2023/11/16 06:46:49;;;;;;;26.30;21.10;;;;;;;6.16;100.00;98958.69;109512;1253;60130;-68
2023/11/16 06:49:16;;;;;;;23.30;19.90;;;;;;;6.19;100.00;98960.98;109471;1253;59013;-68
2023/11/16 06:51:43;;;;;;;23.40;18.60;;;;;;;6.24;100.00;98960.75;109492;1253;58980;-68
2023/11/16 06:54:11;;;;;;;22.40;18.60;;;;;;;6.31;100.00;98953.69;109540;1252;59067;-68
2023/11/16 06:56:40;;;;;;;23.60;19.30;;;;;;;6.37;100.00;98948.26;109466;1254;64486;-69
2023/11/16 06:59:08;;;;;;;22.80;17.50;;;;;;;6.42;100.00;98951.55;109520;1254;59061;-68
2023/11/16 07:01:43;;;;;;;20.70;16.50;;;;;;;6.46;100.00;98951.36;109476;1254;64304;-68
2023/11/16 07:04:09;;;;;;;26.20;20.90;;;;;;;6.48;100.00;98949.10;109540;1254;59311;-68
2023/11/16 07:06:36;;;;;;;26.90;21.10;;;;;;;6.51;100.00;98954.27;109237;1252;58864;-71
2023/11/16 07:09:03;;;;;;;23.60;21.20;;;;;;;6.54;100.00;98956.20;109495;1252;66003;-73
2023/11/16 07:11:29;;;;;;;26.20;19.80;;;;;;;6.58;100.00;98956.37;109511;1253;59848;-74
2023/11/16 07:13:56;;;;;;;25.00;21.60;;;;;;;6.60;100.00;98959.61;109511;1252;62434;-74
2023/11/16 07:16:23;;;;;;;31.40;23.30;;;;;;;6.62;100.00;98963.76;109560;1253;58932;-73
2023/11/16 07:18:50;;;;;;;31.30;24.70;;;;;;;6.65;100.00;98968.05;109604;1254;59011;-74
2023/11/16 07:21:16;;;;;;;36.60;27.80;;;;;;;6.69;100.00;98963.77;109389;1254;64717;-74
2023/11/16 07:23:43;;;;;;;30.90;24.90;;;;;;;6.78;100.00;98957.65;109655;1256;59919;-73
2023/11/16 07:26:09;;;;;;;32.80;25.50;;;;;;;6.87;100.00;98955.39;109513;1252;62563;-74
2023/11/16 07:28:42;;;;;;;33.70;26.50;;;;;;;6.94;100.00;98956.81;109523;1252;59366;-74
2023/11/16 07:31:08;;;;;;;29.10;23.30;;;;;;;6.99;100.00;98957.24;109193;1254;58977;-73
2023/11/16 07:33:35;;;;;;;23.00;19.30;;;;;;;7.02;100.00;98955.85;109228;1252;65924;-68
2023/11/16 07:36:02;;;;;;;23.60;18.90;;;;;;;7.01;100.00;98959.61;109534;1254;60606;-68
2023/11/16 07:38:28;;;;;;;23.60;19.70;;;;;;;6.99;100.00;98958.46;109468;1253;64256;-68
2023/11/16 07:40:57;;;;;;;30.50;21.90;;;;;;;6.98;100.00;98955.90;109445;1252;59185;-72
2023/11/16 07:43:43;;;;;;;30.90;20.90;;;;;;;6.97;100.00;98957.67;109280;1254;59565;-72
2023/11/16 07:46:09;;;;;;;29.60;21.30;;;;;;;7.00;100.00;98956.67;109008;1254;66166;-70
2023/11/16 07:48:36;;;;;;;33.20;22.20;;;;;;;7.03;100.00;98957.05;109283;1254;59145;-71
2023/11/16 07:51:03;;;;;;;30.30;21.10;;;;;;;7.04;100.00;98958.89;109289;1257;65043;-71
2023/11/16 07:53:30;;;;;;;29.60;21.20;;;;;;;7.08;100.00;98959.80;109279;1254;59040;-74
2023/11/16 07:56:00;;;;;;;28.50;22.00;;;;;;;7.12;100.00;98956.22;109284;1254;59031;-76
2023/11/16 07:58:28;;;;;;;23.40;19.40;;;;;;;7.18;100.00;98955.70;109278;1259;67028;-68
2023/11/16 08:00:55;;;;;;;24.00;19.90;;;;;;;7.26;100.00;98954.21;109288;1258;60073;-68
2023/11/16 08:06:15;;;;;;;21.90;16.40;;;;;;;7.48;100.00;98950.39;109292;1257;59080;-67
2023/11/16 08:08:43;;;;;;;22.20;17.70;;;;;;;7.57;100.00;98949.67;109320;1255;58879;-68
2023/11/16 08:11:11;;;;;;;20.20;16.90;;;;;;;7.65;100.00;98944.98;109060;1255;66891;-69
2023/11/16 08:13:41;;;;;;;17.40;15.60;;;;;;;7.74;100.00;98943.46;109298;1254;59635;-68
2023/11/16 08:16:09;;;;;;;;;;;;;;;7.80;100.00;98937.29;109243;1256;62673;-67
2023/11/16 08:18:37;;;;;;;15.20;13.00;;;;;;;7.87;100.00;98940.08;109003;1256;59007;-68
2023/11/16 08:21:09;;;;;;;18.00;14.90;;;;;;;7.96;100.00;98942.40;109369;1251;59068;-68
2023/11/16 08:23:43;;;;;;;15.70;12.90;;;;;;;8.04;100.00;98939.63;109509;1254;65861;-68
2023/11/16 08:26:11;;;;;;;15.80;14.20;;;;;;;8.16;100.00;98942.13;109528;1254;60300;-68
2023/11/16 08:28:40;;;;;;;17.50;14.80;;;;;;;8.27;100.00;98943.96;109496;1254;63741;-68
2023/11/16 08:31:06;;;;;;;18.60;16.10;;;;;;;8.35;100.00;98941.88;109491;1251;59220;-68
2023/11/16 08:33:33;;;;;;;20.30;17.90;;;;;;;8.39;100.00;98939.92;109496;1252;58918;-67
2023/11/16 08:36:00;;;;;;;19.40;16.40;;;;;;;8.40;100.00;98938.46;109505;1253;64463;-69
2023/11/16 08:38:28;;;;;;;18.30;14.90;;;;;;;8.44;100.00;98936.83;109566;1252;60024;-68
2023/11/16 08:40:58;;;;;;;17.50;15.60;;;;;;;8.47;100.00;98937.15;109504;1252;65353;-69
2023/11/16 08:43:32;;;;;;;18.90;15.90;;;;;;;8.51;100.00;98936.03;109500;1252;58971;-68
2023/11/16 08:45:59;;;;;;;16.90;15.00;;;;;;;8.55;100.00;98931.71;109552;1253;59320;-68
2023/11/16 08:48:32;;;;;;;15.70;13.90;;;;;;;8.59;100.00;98932.73;109193;1253;64543;-68
2023/11/16 08:51:06;;;;;;;20.30;15.20;;;;;;;8.62;100.00;98927.23;109569;1254;59017;-68
2023/11/16 08:53:35;;;;;;;17.20;15.40;;;;;;;8.61;100.00;98927.13;109524;1252;64911;-68
2023/11/16 08:56:03;;;;;;;18.00;15.00;;;;;;;8.62;100.00;98921.55;109157;1253;60153;-68
2023/11/16 08:58:36;;;;;;;18.90;16.30;;;;;;;8.62;100.00;98921.73;109518;1253;59274;-68
2023/11/16 09:01:05;;;;;;;20.00;16.50;;;;;;;8.61;100.00;98920.73;109526;1255;64848;-68
2023/11/16 09:03:36;;;;;;;19.70;16.80;;;;;;;8.64;100.00;98917.89;109516;1255;59074;-68
2023/11/16 09:06:05;;;;;;;21.30;17.30;;;;;;;8.72;100.00;98918.45;109499;1252;64546;-69
2023/11/16 09:08:36;;;;;;;18.30;16.00;;;;;;;8.81;100.00;98919.68;109552;1251;59315;-68
2023/11/16 09:11:07;;;;;;;19.70;16.90;;;;;;;8.83;100.00;98918.34;109425;1254;152591;-69
2023/11/16 09:13:34;;;;;;;21.10;18.10;;;;;;;8.83;100.00;98918.86;109559;1254;64879;-68
2023/11/16 09:16:01;;;;;;;23.70;16.80;;;;;;;8.90;100.00;98918.95;109501;1253;69916;-68
2023/11/16 09:18:27;;;;;;;25.70;19.20;;;;;;;8.96;100.00;98919.14;109517;1253;65318;-68
2023/11/16 09:20:58;;;;;;;31.30;22.10;;;;;;;9.03;100.00;98916.92;109496;1252;58937;-67
2023/11/16 09:23:24;;;;;;;27.60;19.20;;;;;;;9.09;100.00;98914.99;109529;1252;59416;-68
2023/11/16 09:25:57;;;;;;;31.60;20.20;;;;;;;9.12;100.00;98917.06;109260;1252;64921;-68
2023/11/16 09:28:23;;;;;;;26.90;18.90;;;;;;;9.16;100.00;98913.44;109531;1254;60068;-68
2023/11/16 09:30:50;;;;;;;28.80;19.30;;;;;;;9.21;100.00;98913.67;109380;1253;65355;-68
2023/11/16 09:33:18;;;;;;;29.40;20.60;;;;;;;9.25;100.00;98907.59;109503;1254;59052;-67
2023/11/16 09:35:45;;;;;;;27.70;19.90;;;;;;;9.31;100.00;98901.69;109525;1254;59635;-68
2023/11/16 09:38:12;;;;;;;29.70;20.50;;;;;;;9.36;100.00;98900.00;109489;1253;64528;-69
2023/11/16 09:40:39;;;;;;;30.10;22.20;;;;;;;9.38;100.00;98898.05;109560;1253;59098;-68
2023/11/16 09:43:24;;;;;;;29.90;23.10;;;;;;;9.41;100.00;98894.83;109506;1252;63819;-68
2023/11/16 09:45:51;;;;;;;27.50;19.70;;;;;;;9.42;100.00;98889.48;109500;1251;59012;-67
2023/11/16 09:48:20;;;;;;;19.70;17.60;;;;;;;9.43;100.00;98890.09;109502;1253;59310;-68
2023/11/16 09:50:49;;;;;;;23.20;16.70;;;;;;;9.49;100.00;98881.05;109175;1253;65001;-68
2023/11/16 09:53:17;;;;;;;19.80;16.50;;;;;;;9.58;100.00;98877.11;109490;1254;59040;-69
2023/11/16 09:55:50;;;;;;;16.40;14.40;;;;;;;9.66;100.00;98878.90;109465;1254;63772;-69
2023/11/16 09:58:23;;;;;;;17.40;12.90;;;;;;;9.70;100.00;98877.53;109505;1253;58968;-68
2023/11/16 10:00:55;;;;;;;17.60;12.20;;;;;;;9.76;100.00;98872.91;109556;1253;58958;-69
2023/11/16 10:03:25;;;;;;;16.00;11.90;;;;;;;9.80;100.00;98870.15;109569;1254;67219;-68
2023/11/16 10:05:55;;;;;;;17.90;11.10;;;;;;;9.90;100.00;98868.30;109492;1252;59204;-69
2023/11/16 10:08:23;;;;;;;18.00;11.00;;;;;;;10.00;100.00;98865.98;109571;1253;65037;-69
2023/11/16 10:10:54;;;;;;;16.00;11.30;;;;;;;10.12;100.00;98863.09;109385;1254;59032;-68
2023/11/16 10:13:24;;;;;;;13.10;10.20;;;;;;;10.21;100.00;98864.95;109544;1253;59022;-67
2023/11/16 10:15:54;;;;;;;14.00;10.50;;;;;;;10.31;100.00;98864.14;109542;1251;64780;-69
2023/11/16 10:18:21;;;;;;;;;;;;;;;10.40;100.00;98860.02;109508;1253;59153;-68
2023/11/16 10:20:48;;;;;;;12.40;9.80;;;;;;;10.46;100.00;98856.18;109509;1252;72419;-67
2023/11/16 10:23:15;;;;;;;11.20;7.10;;;;;;;10.46;100.00;98857.40;109478;1251;59079;-68
2023/11/16 10:25:42;;;;;;;11.30;7.50;;;;;;;10.46;100.00;98856.00;109534;1252;59217;-68
2023/11/16 10:28:19;;;;;;;11.60;6.70;;;;;;;10.49;100.00;98854.20;109497;1254;65822;-68
2023/11/16 10:30:49;;;;;;;11.30;6.80;;;;;;;10.49;100.00;98858.08;109418;1253;59346;-68
2023/11/16 10:33:20;;;;;;;7.90;6.00;;;;;;;10.50;100.00;98849.86;109482;1253;62838;-68
2023/11/16 10:35:48;;;;;;;6.20;4.90;;;;;;;10.41;100.00;98842.89;109390;1252;58952;-68
2023/11/16 10:38:16;;;;;;;4.80;3.90;;;;;;;10.26;100.00;98845.23;109499;1254;59076;-68
2023/11/16 10:40:44;;;;;;;7.00;4.50;;;;;;;10.18;100.00;98845.09;109499;1252;65757;-67
2023/11/16 10:43:15;;;;;;;4.90;4.30;;;;;;;10.16;100.00;98846.30;109152;1253;61236;-67
2023/11/16 10:45:42;;;;;;;7.10;3.80;;;;;;;10.18;100.00;98847.05;109498;1252;63954;-68
2023/11/16 10:48:13;;;;;;;7.20;3.70;;;;;;;10.29;100.00;98844.35;109347;1252;58986;-68
2023/11/16 10:50:43;;;;;;;6.80;3.60;;;;;;;10.38;100.00;98845.55;109475;1254;58921;-68
2023/11/16 10:53:16;;;;;;;5.70;3.30;;;;;;;10.44;100.00;98842.29;109478;1253;66189;-68
2023/11/16 10:55:45;;;;;;;4.10;3.10;;;;;;;10.57;100.00;98837.67;109504;1254;60310;-68
2023/11/16 10:58:13;;;;;;;3.80;2.70;;;;;;;10.65;100.00;98834.14;109473;1252;62514;-67
2023/11/16 11:00:41;;;;;;;4.00;2.90;;;;;;;10.57;100.00;98829.86;109475;1254;58938;-68
2023/11/16 11:03:10;;;;;;;5.30;3.50;;;;;;;10.45;100.00;98831.04;109526;1251;58882;-68
2023/11/16 11:05:48;;;;;;;5.00;3.00;;;;;;;10.34;100.00;98825.23;109511;1251;66915;-68
2023/11/16 11:08:17;;;;;;;4.30;3.50;;;;;;;10.28;100.00;98822.96;109222;1252;59131;-69
2023/11/16 11:10:47;;;;;;;3.70;2.60;;;;;;;10.27;100.00;98820.36;109463;1252;62895;-68
2023/11/16 11:13:18;;;;;;;4.40;3.00;;;;;;;10.28;100.00;98816.36;109456;1254;58979;-68
2023/11/16 11:15:48;;;;;;;4.40;2.80;;;;;;;10.36;100.00;98811.79;109530;1252;58914;-68
2023/11/16 11:18:26;;;;;;;3.90;3.10;;;;;;;10.44;100.00;98803.77;109467;1252;65805;-68
2023/11/16 11:21:04;;;;;;;4.80;2.80;;;;;;;10.52;100.00;98798.73;109519;1252;59048;-68
2023/11/16 11:23:30;;;;;;;4.90;2.70;;;;;;;10.61;100.00;98792.45;109459;1253;65006;-69